sensor_id;sensor_type;location;lat;lon;timestamp;pressure;altitude;pressure_sealevel;temperature;humidity
21276;BME280;36472;52.170;20.884;2022-10-04T00:00:11;100168.97;;;12.79;88.93
21276;BME280;36472;52.170;20.884;2022-10-04T00:03:08;100165.34;;;12.91;86.95
21276;BME280;36472;52.170;20.884;2022-10-04T00:05:40;100165.13;;;11.78;94.08
21276;BME280;36472;52.170;20.884;2022-10-04T00:08:25;100157.34;;;12.70;90.04
21276;BME280;36472;52.170;20.884;2022-10-04T00:11:07;100165.22;;;12.25;90.90
21276;BME280;36472;52.170;20.884;2022-10-04T00:13:46;100165.00;;;12.84;88.26
21276;BME280;36472;52.170;20.884;2022-10-04T00:16:25;100168.84;;;12.80;87.70
21276;BME280;36472;52.170;20.884;2022-10-04T00:19:21;100164.38;;;12.35;89.30
21276;BME280;36472;52.170;20.884;2022-10-04T00:22:17;100165.59;;;12.43;90.28
21276;BME280;36472;52.170;20.884;2022-10-04T00:25:18;100159.13;;;12.92;88.48
21276;BME280;36472;52.170;20.884;2022-10-04T00:28:15;100160.22;;;12.67;88.44
21276;BME280;36472;52.170;20.884;2022-10-04T00:30:44;100154.69;;;12.59;89.80
21276;BME280;36472;52.170;20.884;2022-10-04T00:33:34;100154.84;;;12.80;88.42
21276;BME280;36472;52.170;20.884;2022-10-04T00:36:49;100149.28;;;12.38;92.54
21276;BME280;36472;52.170;20.884;2022-10-04T00:39:57;100154.06;;;12.32;91.48
21276;BME280;36472;52.170;20.884;2022-10-04T00:42:49;100151.44;;;11.62;96.53
21276;BME280;36472;52.170;20.884;2022-10-04T00:45:32;100146.09;;;12.45;93.29
21276;BME280;36472;52.170;20.884;2022-10-04T00:48:28;100155.41;;;12.95;88.07
21276;BME280;36472;52.170;20.884;2022-10-04T00:51:09;100148.34;;;12.84;89.43
21276;BME280;36472;52.170;20.884;2022-10-04T00:53:50;100147.97;;;13.00;86.43
21276;BME280;36472;52.170;20.884;2022-10-04T00:56:29;100155.16;;;12.41;89.40
21276;BME280;36472;52.170;20.884;2022-10-04T00:59:27;100157.59;;;12.56;89.46
21276;BME280;36472;52.170;20.884;2022-10-04T01:02:03;100159.63;;;12.52;88.29
21276;BME280;36472;52.170;20.884;2022-10-04T01:04:41;100166.53;;;12.42;89.91
21276;BME280;36472;52.170;20.884;2022-10-04T01:07:15;100151.47;;;12.89;87.60
21276;BME280;36472;52.170;20.884;2022-10-04T01:09:51;100156.03;;;12.64;87.11
21276;BME280;36472;52.170;20.884;2022-10-04T01:12:38;100140.81;;;12.45;87.43
21276;BME280;36472;52.170;20.884;2022-10-04T01:15:15;100155.66;;;12.80;87.88
21276;BME280;36472;52.170;20.884;2022-10-04T01:18:08;100151.97;;;12.83;87.22
21276;BME280;36472;52.170;20.884;2022-10-04T01:20:39;100148.66;;;12.11;88.46
21276;BME280;36472;52.170;20.884;2022-10-04T01:23:40;100148.22;;;12.40;89.75
21276;BME280;36472;52.170;20.884;2022-10-04T01:26:36;100146.91;;;12.68;87.02
21276;BME280;36472;52.170;20.884;2022-10-04T01:29:10;100136.69;;;12.19;88.51
21276;BME280;36472;52.170;20.884;2022-10-04T01:31:42;100135.88;;;12.41;88.47
21276;BME280;36472;52.170;20.884;2022-10-04T01:34:15;100140.38;;;12.16;88.74
21276;BME280;36472;52.170;20.884;2022-10-04T01:36:46;100145.78;;;12.14;89.21
21276;BME280;36472;52.170;20.884;2022-10-04T01:39:19;100152.06;;;11.41;92.16
21276;BME280;36472;52.170;20.884;2022-10-04T01:41:55;100155.63;;;11.40;94.90
21276;BME280;36472;52.170;20.884;2022-10-04T01:44:32;100141.31;;;12.04;89.53
21276;BME280;36472;52.170;20.884;2022-10-04T01:47:10;100144.56;;;11.83;91.17
21276;BME280;36472;52.170;20.884;2022-10-04T01:49:42;100154.09;;;11.97;91.08
21276;BME280;36472;52.170;20.884;2022-10-04T01:52:18;100159.25;;;11.74;90.10
21276;BME280;36472;52.170;20.884;2022-10-04T01:54:59;100158.50;;;12.32;87.98
21276;BME280;36472;52.170;20.884;2022-10-04T01:57:36;100156.72;;;11.62;90.79
21276;BME280;36472;52.170;20.884;2022-10-04T02:00:09;100167.69;;;11.55;93.62
21276;BME280;36472;52.170;20.884;2022-10-04T02:02:45;100165.94;;;11.43;93.70
21276;BME280;36472;52.170;20.884;2022-10-04T02:05:27;100167.50;;;11.70;90.26
21276;BME280;36472;52.170;20.884;2022-10-04T02:08:03;100167.44;;;12.07;88.00
21276;BME280;36472;52.170;20.884;2022-10-04T02:10:36;100169.66;;;12.47;86.30
21276;BME280;36472;52.170;20.884;2022-10-04T02:13:13;100167.63;;;11.92;89.54
21276;BME280;36472;52.170;20.884;2022-10-04T02:15:46;100171.13;;;11.80;90.21
21276;BME280;36472;52.170;20.884;2022-10-04T02:18:19;100174.34;;;11.72;89.77
21276;BME280;36472;52.170;20.884;2022-10-04T02:20:50;100175.59;;;11.18;93.74
21276;BME280;36472;52.170;20.884;2022-10-04T02:23:21;100169.34;;;12.05;89.45
21276;BME280;36472;52.170;20.884;2022-10-04T02:25:52;100176.78;;;12.11;87.34
21276;BME280;36472;52.170;20.884;2022-10-04T02:28:21;100172.72;;;11.83;88.02
21276;BME280;36472;52.170;20.884;2022-10-04T02:30:51;100170.41;;;11.30;91.75
21276;BME280;36472;52.170;20.884;2022-10-04T02:33:40;100173.94;;;11.90;88.70
21276;BME280;36472;52.170;20.884;2022-10-04T02:36:10;100164.28;;;12.37;85.56
21276;BME280;36472;52.170;20.884;2022-10-04T02:38:45;100171.94;;;11.45;88.56
21276;BME280;36472;52.170;20.884;2022-10-04T02:41:24;100160.97;;;12.11;87.67
21276;BME280;36472;52.170;20.884;2022-10-04T02:43:59;100173.63;;;11.70;88.21
21276;BME280;36472;52.170;20.884;2022-10-04T02:46:35;100169.38;;;11.56;88.65
21276;BME280;36472;52.170;20.884;2022-10-04T02:49:18;100166.72;;;12.05;86.74
21276;BME280;36472;52.170;20.884;2022-10-04T02:51:56;100169.16;;;12.30;84.10
21276;BME280;36472;52.170;20.884;2022-10-04T02:54:35;100170.06;;;12.07;86.66
21276;BME280;36472;52.170;20.884;2022-10-04T02:57:14;100179.44;;;11.63;87.62
21276;BME280;36472;52.170;20.884;2022-10-04T02:59:44;100177.63;;;11.39;89.21
21276;BME280;36472;52.170;20.884;2022-10-04T03:02:26;100179.50;;;11.13;92.54
21276;BME280;36472;52.170;20.884;2022-10-04T03:05:02;100182.69;;;11.66;91.42
21276;BME280;36472;52.170;20.884;2022-10-04T03:07:34;100175.66;;;12.38;86.77
21276;BME280;36472;52.170;20.884;2022-10-04T03:10:09;100179.50;;;11.74;89.00
21276;BME280;36472;52.170;20.884;2022-10-04T03:12:40;100176.25;;;11.94;91.06
21276;BME280;36472;52.170;20.884;2022-10-04T03:15:11;100177.69;;;11.50;90.33
21276;BME280;36472;52.170;20.884;2022-10-04T03:17:42;100170.78;;;11.85;89.39
21276;BME280;36472;52.170;20.884;2022-10-04T03:20:13;100176.41;;;11.56;91.12
21276;BME280;36472;52.170;20.884;2022-10-04T03:22:52;100173.72;;;11.69;90.08
21276;BME280;36472;52.170;20.884;2022-10-04T03:25:28;100183.03;;;11.62;92.91
21276;BME280;36472;52.170;20.884;2022-10-04T03:28:01;100182.47;;;11.69;92.63
21276;BME280;36472;52.170;20.884;2022-10-04T03:30:30;100181.22;;;12.10;89.60
21276;BME280;36472;52.170;20.884;2022-10-04T03:32:59;100187.28;;;12.00;91.44
21276;BME280;36472;52.170;20.884;2022-10-04T03:35:33;100183.13;;;12.08;91.73
21276;BME280;36472;52.170;20.884;2022-10-04T03:38:07;100183.13;;;11.84;92.32
21276;BME280;36472;52.170;20.884;2022-10-04T03:40:41;100189.56;;;12.51;89.16
21276;BME280;36472;52.170;20.884;2022-10-04T03:43:13;100186.00;;;12.52;88.39
21276;BME280;36472;52.170;20.884;2022-10-04T03:45:42;100187.78;;;12.63;88.48
21276;BME280;36472;52.170;20.884;2022-10-04T03:48:15;100188.97;;;12.59;89.35
21276;BME280;36472;52.170;20.884;2022-10-04T03:50:48;100190.63;;;12.48;87.18
21276;BME280;36472;52.170;20.884;2022-10-04T03:53:29;100185.66;;;11.86;92.08
21276;BME280;36472;52.170;20.884;2022-10-04T03:55:59;100190.50;;;12.39;88.90
21276;BME280;36472;52.170;20.884;2022-10-04T03:58:32;100199.13;;;12.41;89.42
21276;BME280;36472;52.170;20.884;2022-10-04T04:01:12;100201.66;;;12.07;90.82
21276;BME280;36472;52.170;20.884;2022-10-04T04:03:54;100201.97;;;12.26;91.41
21276;BME280;36472;52.170;20.884;2022-10-04T04:06:28;100195.31;;;11.98;91.71
21276;BME280;36472;52.170;20.884;2022-10-04T04:09:05;100204.69;;;12.13;91.80
21276;BME280;36472;52.170;20.884;2022-10-04T04:11:35;100206.63;;;12.23;91.65
21276;BME280;36472;52.170;20.884;2022-10-04T04:14:11;100204.78;;;12.47;90.02
21276;BME280;36472;52.170;20.884;2022-10-04T04:16:43;100206.34;;;11.90;92.29
21276;BME280;36472;52.170;20.884;2022-10-04T04:19:17;100210.50;;;12.30;90.22
21276;BME280;36472;52.170;20.884;2022-10-04T04:21:53;100205.94;;;11.48;93.86
21276;BME280;36472;52.170;20.884;2022-10-04T04:24:28;100214.63;;;12.10;92.01
21276;BME280;36472;52.170;20.884;2022-10-04T04:27:01;100207.72;;;12.20;90.43
21276;BME280;36472;52.170;20.884;2022-10-04T04:29:42;100213.53;;;12.12;92.01
21276;BME280;36472;52.170;20.884;2022-10-04T04:32:18;100213.63;;;12.46;89.09
21276;BME280;36472;52.170;20.884;2022-10-04T04:34:52;100223.97;;;12.14;89.43
21276;BME280;36472;52.170;20.884;2022-10-04T04:37:21;100229.28;;;12.37;89.68
21276;BME280;36472;52.170;20.884;2022-10-04T04:39:51;100224.69;;;12.16;91.43
21276;BME280;36472;52.170;20.884;2022-10-04T04:42:28;100223.03;;;12.26;89.92
21276;BME280;36472;52.170;20.884;2022-10-04T04:45:03;100222.03;;;12.40;88.32
21276;BME280;36472;52.170;20.884;2022-10-04T04:47:37;100231.34;;;11.85;90.92
21276;BME280;36472;52.170;20.884;2022-10-04T04:50:13;100225.97;;;11.86;90.88
21276;BME280;36472;52.170;20.884;2022-10-04T04:52:47;100230.75;;;11.81;93.76
21276;BME280;36472;52.170;20.884;2022-10-04T04:55:20;100233.91;;;11.73;93.70
21276;BME280;36472;52.170;20.884;2022-10-04T04:57:54;100232.34;;;12.08;89.68
21276;BME280;36472;52.170;20.884;2022-10-04T05:00:31;100237.41;;;12.22;89.94
21276;BME280;36472;52.170;20.884;2022-10-04T05:03:05;100231.31;;;12.22;90.50
21276;BME280;36472;52.170;20.884;2022-10-04T05:05:35;100233.50;;;12.39;88.78
21276;BME280;36472;52.170;20.884;2022-10-04T05:08:16;100242.84;;;12.32;89.94
21276;BME280;36472;52.170;20.884;2022-10-04T05:10:51;100246.84;;;12.49;87.98
21276;BME280;36472;52.170;20.884;2022-10-04T05:13:32;100241.47;;;12.62;87.13
21276;BME280;36472;52.170;20.884;2022-10-04T05:16:13;100253.50;;;12.42;86.46
21276;BME280;36472;52.170;20.884;2022-10-04T05:18:45;100263.13;;;11.70;91.72
21276;BME280;36472;52.170;20.884;2022-10-04T05:21:24;100259.28;;;12.47;88.85
21276;BME280;36472;52.170;20.884;2022-10-04T05:23:56;100267.25;;;12.69;87.69
21276;BME280;36472;52.170;20.884;2022-10-04T05:26:28;100259.22;;;12.71;87.38
21276;BME280;36472;52.170;20.884;2022-10-04T05:29:06;100261.94;;;12.11;90.67
21276;BME280;36472;52.170;20.884;2022-10-04T05:31:48;100263.63;;;12.59;88.52
21276;BME280;36472;52.170;20.884;2022-10-04T05:34:24;100277.19;;;12.30;88.77
21276;BME280;36472;52.170;20.884;2022-10-04T05:37:21;100275.44;;;12.42;89.64
21276;BME280;36472;52.170;20.884;2022-10-04T05:40:05;100279.25;;;12.03;90.28
21276;BME280;36472;52.170;20.884;2022-10-04T05:42:44;100287.16;;;12.03;91.30
21276;BME280;36472;52.170;20.884;2022-10-04T05:45:18;100285.63;;;13.05;86.83
21276;BME280;36472;52.170;20.884;2022-10-04T05:47:50;100290.22;;;12.56;89.07
21276;BME280;36472;52.170;20.884;2022-10-04T05:50:28;100293.38;;;12.72;88.97
21276;BME280;36472;52.170;20.884;2022-10-04T05:53:19;100299.66;;;12.83;85.88
21276;BME280;36472;52.170;20.884;2022-10-04T05:56:00;100299.38;;;12.86;87.43
21276;BME280;36472;52.170;20.884;2022-10-04T05:58:52;100309.59;;;12.44;90.17
21276;BME280;36472;52.170;20.884;2022-10-04T06:01:37;100304.72;;;12.50;89.79
21276;BME280;36472;52.170;20.884;2022-10-04T06:04:46;100310.25;;;12.34;89.91
21276;BME280;36472;52.170;20.884;2022-10-04T06:07:27;100319.72;;;12.61;89.76
21276;BME280;36472;52.170;20.884;2022-10-04T06:10:31;100310.91;;;12.14;94.04
21276;BME280;36472;52.170;20.884;2022-10-04T06:13:26;100330.41;;;12.71;89.86
21276;BME280;36472;52.170;20.884;2022-10-04T06:16:17;100323.72;;;12.78;88.27
21276;BME280;36472;52.170;20.884;2022-10-04T06:19:28;100332.44;;;12.67;90.26
21276;BME280;36472;52.170;20.884;2022-10-04T06:22:14;100331.75;;;13.35;85.57
21276;BME280;36472;52.170;20.884;2022-10-04T06:24:48;100332.84;;;12.85;88.35
21276;BME280;36472;52.170;20.884;2022-10-04T06:27:26;100327.66;;;13.42;85.10
21276;BME280;36472;52.170;20.884;2022-10-04T06:30:04;100337.22;;;12.62;88.50
21276;BME280;36472;52.170;20.884;2022-10-04T06:33:19;100334.38;;;12.17;93.05
21276;BME280;36472;52.170;20.884;2022-10-04T06:36:27;100347.44;;;12.78;87.70
21276;BME280;36472;52.170;20.884;2022-10-04T06:39:34;100346.91;;;12.97;86.61
21276;BME280;36472;52.170;20.884;2022-10-04T06:42:39;100348.44;;;12.53;90.98
21276;BME280;36472;52.170;20.884;2022-10-04T06:45:32;100361.13;;;12.83;87.03
21276;BME280;36472;52.170;20.884;2022-10-04T06:51:28;100364.75;;;13.05;86.87
21276;BME280;36472;52.170;20.884;2022-10-04T06:54:17;100371.38;;;13.10;86.67
21276;BME280;36472;52.170;20.884;2022-10-04T06:57:16;100370.25;;;13.37;85.37
21276;BME280;36472;52.170;20.884;2022-10-04T07:00:08;100367.84;;;13.79;83.96
21276;BME280;36472;52.170;20.884;2022-10-04T07:02:45;100367.59;;;13.71;82.49
21276;BME280;36472;52.170;20.884;2022-10-04T07:05:24;100375.06;;;13.43;85.18
21276;BME280;36472;52.170;20.884;2022-10-04T07:08:10;100375.28;;;13.63;84.70
21276;BME280;36472;52.170;20.884;2022-10-04T07:10:49;100388.25;;;13.66;84.55
21276;BME280;36472;52.170;20.884;2022-10-04T07:13:38;100391.94;;;13.29;84.62
21276;BME280;36472;52.170;20.884;2022-10-04T07:16:27;100386.81;;;13.62;83.80
21276;BME280;36472;52.170;20.884;2022-10-04T07:19:07;100393.19;;;13.82;82.70
21276;BME280;36472;52.170;20.884;2022-10-04T07:21:48;100389.69;;;13.59;84.33
21276;BME280;36472;52.170;20.884;2022-10-04T07:24:26;100386.41;;;14.23;80.56
21276;BME280;36472;52.170;20.884;2022-10-04T07:27:02;100390.63;;;13.92;82.02
21276;BME280;36472;52.170;20.884;2022-10-04T07:29:40;100402.03;;;14.03;80.78
21276;BME280;36472;52.170;20.884;2022-10-04T07:32:20;100399.50;;;14.13;79.35
21276;BME280;36472;52.170;20.884;2022-10-04T07:34:57;100403.84;;;14.03;80.23
21276;BME280;36472;52.170;20.884;2022-10-04T07:37:43;100407.25;;;14.37;78.22
21276;BME280;36472;52.170;20.884;2022-10-04T07:40:23;100409.72;;;14.18;78.97
21276;BME280;36472;52.170;20.884;2022-10-04T07:42:59;100420.91;;;13.54;81.86
21276;BME280;36472;52.170;20.884;2022-10-04T07:45:34;100427.63;;;13.92;81.06
21276;BME280;36472;52.170;20.884;2022-10-04T07:48:14;100437.94;;;13.95;80.43
21276;BME280;36472;52.170;20.884;2022-10-04T07:50:54;100427.88;;;14.00;79.49
21276;BME280;36472;52.170;20.884;2022-10-04T07:53:37;100431.94;;;14.15;79.72
21276;BME280;36472;52.170;20.884;2022-10-04T07:56:19;100431.91;;;14.27;76.66
21276;BME280;36472;52.170;20.884;2022-10-04T08:01:51;100447.81;;;13.23;81.70
21276;BME280;36472;52.170;20.884;2022-10-04T08:04:41;100449.03;;;13.89;79.07
21276;BME280;36472;52.170;20.884;2022-10-04T08:07:19;100438.88;;;13.37;82.93
21276;BME280;36472;52.170;20.884;2022-10-04T08:09:59;100452.81;;;13.51;80.54
21276;BME280;36472;52.170;20.884;2022-10-04T08:12:49;100453.19;;;14.14;77.34
21276;BME280;36472;52.170;20.884;2022-10-04T08:15:34;100452.72;;;13.63;80.32
21276;BME280;36472;52.170;20.884;2022-10-04T08:18:23;100452.84;;;13.96;77.80
21276;BME280;36472;52.170;20.884;2022-10-04T08:20:59;100454.38;;;13.64;78.96
21276;BME280;36472;52.170;20.884;2022-10-04T08:24:06;100452.63;;;13.88;78.42
21276;BME280;36472;52.170;20.884;2022-10-04T08:26:58;100444.88;;;14.85;72.98
21276;BME280;36472;52.170;20.884;2022-10-04T08:29:49;100453.44;;;14.22;74.90
21276;BME280;36472;52.170;20.884;2022-10-04T08:32:50;100452.59;;;14.76;72.84
21276;BME280;36472;52.170;20.884;2022-10-04T08:35:36;100450.72;;;14.67;73.18
21276;BME280;36472;52.170;20.884;2022-10-04T08:38:31;100457.31;;;15.05;71.84
21276;BME280;36472;52.170;20.884;2022-10-04T08:41:43;100448.19;;;14.54;71.88
21276;BME280;36472;52.170;20.884;2022-10-04T08:45:14;100464.44;;;14.61;72.34
21276;BME280;36472;52.170;20.884;2022-10-04T08:48:33;100457.31;;;14.73;71.18
21276;BME280;36472;52.170;20.884;2022-10-04T08:51:55;100471.22;;;14.86;70.04
21276;BME280;36472;52.170;20.884;2022-10-04T08:55:07;100475.31;;;14.79;69.96
21276;BME280;36472;52.170;20.884;2022-10-04T08:58:12;100465.47;;;14.81;68.73
21276;BME280;36472;52.170;20.884;2022-10-04T09:00:56;100470.47;;;14.84;69.73
21276;BME280;36472;52.170;20.884;2022-10-04T09:04:20;100480.66;;;15.00;71.23
21276;BME280;36472;52.170;20.884;2022-10-04T09:10:41;100489.72;;;15.19;69.30
21276;BME280;36472;52.170;20.884;2022-10-04T09:13:31;100486.31;;;14.52;73.30
21276;BME280;36472;52.170;20.884;2022-10-04T09:16:17;100487.03;;;14.98;70.46
21276;BME280;36472;52.170;20.884;2022-10-04T09:19:19;100497.31;;;16.27;64.75
21276;BME280;36472;52.170;20.884;2022-10-04T09:22:16;100491.03;;;16.38;63.41
21276;BME280;36472;52.170;20.884;2022-10-04T09:25:21;100482.22;;;17.84;55.24
21276;BME280;36472;52.170;20.884;2022-10-04T09:28:52;100495.81;;;17.81;54.44
21276;BME280;36472;52.170;20.884;2022-10-04T09:32:07;100491.19;;;16.96;56.90
21276;BME280;36472;52.170;20.884;2022-10-04T09:34:59;100506.50;;;17.61;54.56
21276;BME280;36472;52.170;20.884;2022-10-04T09:37:54;100509.72;;;18.67;52.75
21276;BME280;36472;52.170;20.884;2022-10-04T09:41:13;100504.34;;;17.84;54.11
21276;BME280;36472;52.170;20.884;2022-10-04T09:47:43;100515.72;;;17.57;55.25
21276;BME280;36472;52.170;20.884;2022-10-04T09:50:58;100530.28;;;17.04;56.52
21276;BME280;36472;52.170;20.884;2022-10-04T09:53:48;100529.63;;;16.11;60.59
21276;BME280;36472;52.170;20.884;2022-10-04T09:56:51;100528.59;;;16.33;59.50
21276;BME280;36472;52.170;20.884;2022-10-04T10:00:05;100527.94;;;16.10;60.07
21276;BME280;36472;52.170;20.884;2022-10-04T10:03:34;100520.31;;;15.75;62.64
21276;BME280;36472;52.170;20.884;2022-10-04T10:06:36;100523.91;;;15.85;62.87
21276;BME280;36472;52.170;20.884;2022-10-04T10:09:24;100532.72;;;16.16;61.77
21276;BME280;36472;52.170;20.884;2022-10-04T10:16:18;100533.28;;;16.20;60.84
21276;BME280;36472;52.170;20.884;2022-10-04T10:19:11;100527.78;;;18.36;54.10
21276;BME280;36472;52.170;20.884;2022-10-04T10:21:57;100534.00;;;20.76;47.16
21276;BME280;36472;52.170;20.884;2022-10-04T10:25:02;100544.25;;;22.27;42.86
21276;BME280;36472;52.170;20.884;2022-10-04T10:28:02;100556.91;;;22.49;42.88
21276;BME280;36472;52.170;20.884;2022-10-04T10:30:50;100556.72;;;22.59;40.71
21276;BME280;36472;52.170;20.884;2022-10-04T10:34:12;100558.72;;;20.43;44.92
21276;BME280;36472;52.170;20.884;2022-10-04T10:37:05;100556.03;;;19.83;48.60
21276;BME280;36472;52.170;20.884;2022-10-04T10:40:24;100572.63;;;21.14;44.38
21276;BME280;36472;52.170;20.884;2022-10-04T10:43:34;100556.22;;;20.84;43.74
21276;BME280;36472;52.170;20.884;2022-10-04T10:46:25;100568.84;;;20.31;44.89
21276;BME280;36472;52.170;20.884;2022-10-04T10:49:30;100567.66;;;19.01;48.01
21276;BME280;36472;52.170;20.884;2022-10-04T10:52:45;100568.47;;;17.32;52.68
21276;BME280;36472;52.170;20.884;2022-10-04T10:59:04;100571.97;;;17.33;53.09
21276;BME280;36472;52.170;20.884;2022-10-04T11:02:27;100572.88;;;16.42;56.99
21276;BME280;36472;52.170;20.884;2022-10-04T11:05:53;100568.03;;;17.17;55.97
21276;BME280;36472;52.170;20.884;2022-10-04T11:09:06;100570.25;;;17.71;56.92
21276;BME280;36472;52.170;20.884;2022-10-04T11:15:58;100592.50;;;18.37;54.56
21276;BME280;36472;52.170;20.884;2022-10-04T11:25:56;100595.72;;;17.54;57.16
21276;BME280;36472;52.170;20.884;2022-10-04T11:28:36;100606.06;;;17.47;56.28
21276;BME280;36472;52.170;20.884;2022-10-04T11:32:00;100608.88;;;17.46;56.57
21276;BME280;36472;52.170;20.884;2022-10-04T11:35:27;100607.97;;;16.56;59.55
21276;BME280;36472;52.170;20.884;2022-10-04T11:38:20;100605.75;;;15.99;61.28
21276;BME280;36472;52.170;20.884;2022-10-04T11:41:11;100618.84;;;16.22;60.95
21276;BME280;36472;52.170;20.884;2022-10-04T11:44:28;100615.13;;;16.34;60.55
21276;BME280;36472;52.170;20.884;2022-10-04T11:47:14;100618.63;;;16.75;57.50
21276;BME280;36472;52.170;20.884;2022-10-04T11:50:13;100613.88;;;17.00;56.61
21276;BME280;36472;52.170;20.884;2022-10-04T11:56:17;100622.72;;;16.79;58.27
21276;BME280;36472;52.170;20.884;2022-10-04T11:59:07;100629.09;;;16.36;60.59
21276;BME280;36472;52.170;20.884;2022-10-04T12:05:22;100635.69;;;16.42;61.61
21276;BME280;36472;52.170;20.884;2022-10-04T12:08:13;100628.69;;;16.72;60.76
21276;BME280;36472;52.170;20.884;2022-10-04T12:11:25;100633.97;;;16.62;60.90
21276;BME280;36472;52.170;20.884;2022-10-04T12:14:32;100641.97;;;16.72;61.28
21276;BME280;36472;52.170;20.884;2022-10-04T12:17:47;100642.19;;;16.59;62.64
21276;BME280;36472;52.170;20.884;2022-10-04T12:20:49;100647.97;;;16.74;60.81
21276;BME280;36472;52.170;20.884;2022-10-04T12:23:50;100636.47;;;16.63;62.28
21276;BME280;36472;52.170;20.884;2022-10-04T12:26:48;100646.25;;;16.63;61.03
21276;BME280;36472;52.170;20.884;2022-10-04T12:32:55;100644.84;;;16.59;60.98
21276;BME280;36472;52.170;20.884;2022-10-04T12:35:46;100655.44;;;15.86;64.99
21276;BME280;36472;52.170;20.884;2022-10-04T12:41:45;100653.06;;;16.25;63.73
21276;BME280;36472;52.170;20.884;2022-10-04T12:44:30;100657.25;;;15.85;63.83
21276;BME280;36472;52.170;20.884;2022-10-04T12:47:42;100664.25;;;16.29;62.41
21276;BME280;36472;52.170;20.884;2022-10-04T12:50:33;100674.47;;;16.33;62.21
21276;BME280;36472;52.170;20.884;2022-10-04T12:53:21;100669.72;;;15.95;64.27
21276;BME280;36472;52.170;20.884;2022-10-04T12:56:07;100680.00;;;15.88;65.79
21276;BME280;36472;52.170;20.884;2022-10-04T12:59:00;100671.69;;;16.35;64.07
21276;BME280;36472;52.170;20.884;2022-10-04T13:01:43;100675.56;;;16.61;63.58
21276;BME280;36472;52.170;20.884;2022-10-04T13:04:30;100677.56;;;16.38;63.08
21276;BME280;36472;52.170;20.884;2022-10-04T13:07:23;100682.50;;;16.53;62.02
21276;BME280;36472;52.170;20.884;2022-10-04T13:10:17;100677.03;;;16.23;64.09
21276;BME280;36472;52.170;20.884;2022-10-04T13:13:24;100678.53;;;16.37;63.18
21276;BME280;36472;52.170;20.884;2022-10-04T13:16:07;100683.81;;;16.37;63.83
21276;BME280;36472;52.170;20.884;2022-10-04T13:19:05;100669.28;;;16.32;63.27
21276;BME280;36472;52.170;20.884;2022-10-04T13:22:09;100689.19;;;15.84;66.29
21276;BME280;36472;52.170;20.884;2022-10-04T13:25:21;100680.53;;;15.70;68.22
21276;BME280;36472;52.170;20.884;2022-10-04T13:27:59;100694.28;;;16.60;65.17
21276;BME280;36472;52.170;20.884;2022-10-04T13:30:37;100691.94;;;16.15;66.02
21276;BME280;36472;52.170;20.884;2022-10-04T13:33:24;100700.19;;;16.42;66.10
21276;BME280;36472;52.170;20.884;2022-10-04T13:36:06;100695.59;;;16.44;65.32
21276;BME280;36472;52.170;20.884;2022-10-04T13:39:01;100689.94;;;16.28;65.93
21276;BME280;36472;52.170;20.884;2022-10-04T13:41:56;100691.38;;;16.21;67.22
21276;BME280;36472;52.170;20.884;2022-10-04T13:44:57;100699.81;;;16.47;66.51
21276;BME280;36472;52.170;20.884;2022-10-04T13:47:58;100709.44;;;16.79;63.38
21276;BME280;36472;52.170;20.884;2022-10-04T13:51:04;100708.97;;;16.43;66.60
21276;BME280;36472;52.170;20.884;2022-10-04T13:53:53;100710.47;;;16.36;66.54
21276;BME280;36472;52.170;20.884;2022-10-04T13:57:03;100715.41;;;16.40;64.54
21276;BME280;36472;52.170;20.884;2022-10-04T13:59:43;100718.66;;;16.23;65.58
21276;BME280;36472;52.170;20.884;2022-10-04T14:02:47;100725.31;;;15.85;67.08
21276;BME280;36472;52.170;20.884;2022-10-04T14:06:12;100713.19;;;16.03;67.40
21276;BME280;36472;52.170;20.884;2022-10-04T14:09:12;100722.19;;;16.33;67.14
21276;BME280;36472;52.170;20.884;2022-10-04T14:12:41;100726.31;;;16.05;68.22
21276;BME280;36472;52.170;20.884;2022-10-04T14:15:49;100723.09;;;16.43;66.35
21276;BME280;36472;52.170;20.884;2022-10-04T14:22:14;100734.94;;;15.75;69.00
21276;BME280;36472;52.170;20.884;2022-10-04T14:25:44;100729.25;;;16.23;66.63
21276;BME280;36472;52.170;20.884;2022-10-04T14:29:05;100734.81;;;15.87;67.99
21276;BME280;36472;52.170;20.884;2022-10-04T14:32:13;100736.59;;;15.98;67.00
21276;BME280;36472;52.170;20.884;2022-10-04T14:35:02;100738.53;;;16.17;66.81
21276;BME280;36472;52.170;20.884;2022-10-04T14:38:35;100737.34;;;15.89;66.88
21276;BME280;36472;52.170;20.884;2022-10-04T14:41:45;100743.25;;;15.38;69.34
21276;BME280;36472;52.170;20.884;2022-10-04T14:45:15;100744.75;;;16.06;67.19
21276;BME280;36472;52.170;20.884;2022-10-04T14:48:20;100755.91;;;15.89;68.72
21276;BME280;36472;52.170;20.884;2022-10-04T14:51:40;100758.69;;;15.76;69.04
21276;BME280;36472;52.170;20.884;2022-10-04T14:54:30;100759.66;;;15.64;69.87
21276;BME280;36472;52.170;20.884;2022-10-04T14:57:15;100762.66;;;15.70;71.07
21276;BME280;36472;52.170;20.884;2022-10-04T15:00:16;100761.34;;;15.76;70.25
21276;BME280;36472;52.170;20.884;2022-10-04T15:03:23;100772.34;;;15.49;70.74
21276;BME280;36472;52.170;20.884;2022-10-04T15:06:25;100763.44;;;15.39;72.89
21276;BME280;36472;52.170;20.884;2022-10-04T15:09:36;100759.75;;;15.85;69.95
21276;BME280;36472;52.170;20.884;2022-10-04T15:12:40;100763.06;;;16.10;68.27
21276;BME280;36472;52.170;20.884;2022-10-04T15:15:49;100767.50;;;15.54;71.46
21276;BME280;36472;52.170;20.884;2022-10-04T15:18:35;100777.66;;;14.92;73.78